Time;durP1;ratioP1;P1;durP2;ratioP2;P2;SDS_P1;SDS_P2;PMS_P1;PMS_P2;Temp;Humidity;BMP_temperature;BMP_pressure;BME280_temperature;BME280_humidity;BME280_pressure;Samples;Min_cycle;Max_cycle;Signal;HPM_P1;HPM_P2
2024/01/23 00:00:26;;;;;;;9.27;2.42;;;11.60;86.00;;;;;;5014083;28;20140;-68
2024/01/23 00:02:52;;;;;;;9.57;2.55;;;11.50;85.90;;;;;;5024989;28;20405;-68
2024/01/23 00:05:18;;;;;;;9.35;2.58;;;11.60;86.00;;;;;;5014781;28;20041;-68
2024/01/23 00:07:43;;;;;;;10.43;2.35;;;11.60;85.90;;;;;;5011392;28;20087;-68
2024/01/23 00:10:09;;;;;;;7.15;2.53;;;11.50;85.80;;;;;;5006876;28;20048;-68
2024/01/23 00:12:35;;;;;;;6.90;2.22;;;11.60;85.90;;;;;;4973979;28;20055;-68
2024/01/23 00:15:00;;;;;;;7.88;2.22;;;11.50;85.80;;;;;;5011755;28;20045;-68
2024/01/23 00:17:26;;;;;;;6.82;2.40;;;11.60;85.90;;;;;;4979160;28;20401;-68
2024/01/23 00:19:53;;;;;;;6.43;2.75;;;11.60;85.90;;;;;;5008708;28;20069;-68
2024/01/23 00:22:19;;;;;;;11.07;2.90;;;11.60;85.80;;;;;;5012346;28;20176;-68
2024/01/23 00:24:44;;;;;;;9.30;3.15;;;11.60;85.90;;;;;;5006373;28;22034;-68
2024/01/23 00:27:10;;;;;;;9.25;2.53;;;11.60;85.80;;;;;;5012735;28;20481;-68
2024/01/23 00:29:36;;;;;;;8.57;2.92;;;11.60;85.80;;;;;;5012367;28;20064;-67
2024/01/23 00:32:02;;;;;;;8.15;2.70;;;11.60;85.80;;;;;;5006974;28;20033;-67
2024/01/23 00:34:28;;;;;;;7.80;2.90;;;11.50;85.70;;;;;;5006328;28;20060;-68
2024/01/23 00:36:53;;;;;;;6.60;1.77;;;11.60;85.80;;;;;;5012768;28;21837;-67
2024/01/23 00:39:19;;;;;;;9.60;3.22;;;11.50;85.70;;;;;;5010945;28;20095;-68
2024/01/23 00:41:45;;;;;;;10.75;2.65;;;11.60;85.80;;;;;;5013496;28;20068;-68
2024/01/23 00:44:10;;;;;;;6.32;2.40;;;11.60;85.70;;;;;;5028362;28;20041;-68
2024/01/23 00:46:36;;;;;;;6.63;2.30;;;11.60;85.70;;;;;;5013519;28;20405;-68
2024/01/23 00:49:02;;;;;;;9.07;2.42;;;11.60;85.70;;;;;;5008849;28;20043;-68
2024/01/23 00:51:30;;;;;;;7.70;2.58;;;11.60;85.70;;;;;;5007863;28;20085;-68
2024/01/23 00:53:56;;;;;;;8.20;2.70;;;11.60;85.60;;;;;;5011537;28;20116;-67
2024/01/23 00:56:22;;;;;;;10.20;2.88;;;11.60;85.60;;;;;;5026663;28;20137;-67
2024/01/23 00:58:47;;;;;;;8.18;3.03;;;11.60;85.60;;;;;;5010742;28;20222;-68
2024/01/23 01:01:13;;;;;;;6.70;3.00;;;11.60;85.50;;;;;;5011509;28;20045;-68
2024/01/23 01:03:39;;;;;;;9.38;2.55;;;11.60;85.50;;;;;;5011423;28;20041;-68
2024/01/23 01:06:04;;;;;;;7.40;2.30;;;11.50;85.40;;;;;;5043811;28;20052;-68
2024/01/23 01:08:30;;;;;;;6.00;2.30;;;11.60;85.50;;;;;;5012792;28;20481;-68
2024/01/23 01:10:56;;;;;;;8.52;2.80;;;11.50;85.40;;;;;;5009536;28;20084;-68
2024/01/23 01:13:22;;;;;;;8.07;2.55;;;11.50;85.40;;;;;;4998207;28;20395;-68
2024/01/23 01:15:47;;;;;;;7.68;2.65;;;11.50;85.40;;;;;;5014432;28;20120;-68
2024/01/23 01:18:13;;;;;;;9.95;2.90;;;11.60;85.40;;;;;;5022688;28;20396;-68
2024/01/23 01:20:39;;;;;;;9.30;2.30;;;11.60;85.40;;;;;;5027065;28;20084;-67
2024/01/23 01:23:04;;;;;;;8.85;2.53;;;11.50;85.40;;;;;;5012699;28;20128;-68
2024/01/23 01:25:30;;;;;;;7.70;2.67;;;11.60;85.40;;;;;;5008003;28;20042;-68
2024/01/23 01:27:55;;;;;;;8.38;2.72;;;11.60;85.40;;;;;;4995653;28;20075;-68
2024/01/23 01:30:26;;;;;;;7.30;2.63;;;11.50;85.30;;;;;;4995775;28;20477;-68
2024/01/23 01:32:52;;;;;;;7.78;2.40;;;11.60;85.40;;;;;;5029061;28;20508;-68
2024/01/23 01:35:18;;;;;;;7.72;2.70;;;11.50;85.40;;;;;;5029876;28;20131;-68
2024/01/23 01:37:43;;;;;;;9.63;2.80;;;11.50;85.40;;;;;;5027829;28;20116;-68
2024/01/23 01:40:10;;;;;;;7.55;2.92;;;11.50;85.40;;;;;;5010084;28;20469;-68
2024/01/23 01:42:36;;;;;;;7.07;2.30;;;11.50;85.40;;;;;;5010240;28;20057;-68
2024/01/23 01:45:03;;;;;;;10.85;2.85;;;11.50;85.30;;;;;;5012641;28;20300;-67
2024/01/23 01:47:29;;;;;;;7.70;2.75;;;11.50;85.30;;;;;;5011673;28;20091;-67
2024/01/23 01:49:54;;;;;;;7.65;2.95;;;11.60;85.40;;;;;;5013669;28;20049;-68
2024/01/23 01:52:20;;;;;;;13.93;3.05;;;11.50;85.30;;;;;;5012865;28;20033;-68
2024/01/23 01:54:46;;;;;;;7.40;2.60;;;11.60;85.30;;;;;;5012643;28;20040;-68
2024/01/23 01:57:13;;;;;;;8.57;2.10;;;11.60;85.30;;;;;;4991890;28;20037;-68
2024/01/23 01:59:38;;;;;;;8.43;2.57;;;11.60;85.30;;;;;;5006599;28;20489;-67
2024/01/23 02:02:05;;;;;;;5.75;2.42;;;11.60;85.40;;;;;;4993097;28;20052;-68
2024/01/23 02:04:31;;;;;;;10.45;2.80;;;11.50;85.30;;;;;;5012804;28;20048;-68
2024/01/23 02:06:57;;;;;;;12.15;2.70;;;11.50;85.30;;;;;;5012493;28;20033;-68
2024/01/23 02:09:22;;;;;;;9.25;2.75;;;11.60;85.30;;;;;;5010793;28;20141;-68
2024/01/23 02:12:07;;;;;;;10.40;2.90;;;11.50;85.30;;;;;;4993361;28;20048;-68
2024/01/23 02:14:32;;;;;;;8.60;3.10;;;11.50;85.30;;;;;;5013000;28;20033;-68
2024/01/23 02:16:58;;;;;;;8.85;2.92;;;11.50;85.20;;;;;;4994598;28;20060;-68
2024/01/23 02:19:26;;;;;;;10.40;2.55;;;11.50;85.90;;;;;;5009521;28;20489;-68
2024/01/23 02:21:51;;;;;;;8.77;2.90;;;11.50;85.20;;;;;;4995788;28;20072;-67
2024/01/23 02:24:17;;;;;;;10.27;3.10;;;11.50;85.20;;;;;;5012995;28;20586;-68
2024/01/23 02:26:43;;;;;;;8.55;3.05;;;11.60;85.20;;;;;;5008677;28;20073;-68
2024/01/23 02:29:10;;;;;;;9.80;3.08;;;11.50;85.10;;;;;;5007288;28;20037;-68
2024/01/23 02:31:35;;;;;;;6.73;2.57;;;11.50;85.10;;;;;;5008774;28;20045;-68
2024/01/23 02:34:01;;;;;;;9.07;3.38;;;11.50;85.10;;;;;;5027459;28;20564;-68
2024/01/23 02:36:27;;;;;;;8.00;2.72;;;11.50;85.00;;;;;;5007605;28;20037;-68
2024/01/23 02:38:52;;;;;;;9.35;2.90;;;11.50;85.10;;;;;;5006717;28;20092;-68
2024/01/23 02:41:18;;;;;;;8.75;2.85;;;11.50;85.10;;;;;;4996037;28;20045;-68
2024/01/23 02:43:44;;;;;;;7.97;2.80;;;11.50;85.00;;;;;;5008627;28;20037;-67
2024/01/23 02:46:09;;;;;;;9.18;3.08;;;11.50;85.70;;;;;;5007589;28;20042;-67
2024/01/23 02:48:35;;;;;;;8.73;2.67;;;11.50;84.90;;;;;;5007686;28;20053;-68
2024/01/23 02:51:00;;;;;;;10.00;3.00;;;11.50;84.90;;;;;;5006717;28;20038;-68
2024/01/23 02:53:26;;;;;;;9.95;2.85;;;11.50;84.80;;;;;;5002740;28;20034;-68
2024/01/23 02:55:52;;;;;;;11.93;3.20;;;11.50;84.90;;;;;;5044292;28;20044;-68
2024/01/23 02:58:20;;;;;;;9.80;3.20;;;11.50;84.90;;;;;;5012624;28;20389;-68
2024/01/23 03:00:46;;;;;;;7.88;3.33;;;11.50;84.90;;;;;;5011872;28;20488;-68
2024/01/23 03:03:11;;;;;;;7.93;3.10;;;11.50;84.80;;;;;;5009292;28;20087;-68
2024/01/23 03:05:37;;;;;;;9.38;3.15;;;11.50;84.80;;;;;;5027044;28;20100;-68
2024/01/23 03:08:04;;;;;;;9.38;2.65;;;11.50;84.80;;;;;;4980646;28;20087;-68
2024/01/23 03:10:30;;;;;;;9.88;2.90;;;11.50;84.80;;;;;;5026757;28;20042;-67
2024/01/23 03:12:55;;;;;;;10.82;3.35;;;11.50;84.70;;;;;;4996480;28;20477;-68
2024/01/23 03:15:21;;;;;;;11.57;3.80;;;11.50;84.70;;;;;;4994994;28;20037;-68
2024/01/23 03:17:47;;;;;;;8.43;3.30;;;11.50;84.70;;;;;;5009530;28;20034;-68
2024/01/23 03:20:12;;;;;;;10.20;3.38;;;11.50;84.70;;;;;;5005981;28;20112;-68
2024/01/23 03:22:38;;;;;;;10.73;3.20;;;11.50;84.70;;;;;;5005103;28;20041;-68
2024/01/23 03:25:05;;;;;;;11.80;3.35;;;11.50;84.70;;;;;;5008842;28;20090;-67
2024/01/23 03:27:31;;;;;;;10.00;2.88;;;11.50;84.60;;;;;;5012842;28;20542;-68
2024/01/23 03:29:57;;;;;;;8.60;2.88;;;11.50;84.60;;;;;;5008499;28;20053;-68
2024/01/23 03:32:22;;;;;;;12.52;3.50;;;11.50;84.60;;;;;;5008234;28;20052;-68
2024/01/23 03:34:49;;;;;;;9.48;2.75;;;11.50;84.50;;;;;;5009012;28;20048;-68
2024/01/23 03:37:15;;;;;;;10.25;3.00;;;11.50;84.50;;;;;;5008606;28;20134;-67
2024/01/23 03:39:41;;;;;;;8.93;3.28;;;11.50;84.50;;;;;;5031430;28;20045;-68
2024/01/23 03:42:06;;;;;;;9.57;2.30;;;11.50;84.50;;;;;;5012821;28;20571;-68
2024/01/23 03:44:32;;;;;;;11.10;3.55;;;11.50;84.50;;;;;;5013740;28;20038;-68
2024/01/23 03:46:58;;;;;;;8.98;3.00;;;11.50;84.50;;;;;;5014979;28;20076;-68
2024/01/23 03:49:24;;;;;;;8.50;3.40;;;11.50;84.50;;;;;;5014730;28;20534;-68
2024/01/23 03:51:49;;;;;;;7.97;2.60;;;11.50;84.50;;;;;;5014843;28;20135;-68
2024/01/23 03:54:15;;;;;;;11.52;2.95;;;11.40;84.40;;;;;;5014333;28;20040;-68
2024/01/23 03:56:41;;;;;;;11.55;3.38;;;11.50;84.50;;;;;;5030009;28;20042;-68
2024/01/23 03:59:07;;;;;;;8.98;3.03;;;11.50;84.50;;;;;;5032313;28;20168;-68
2024/01/23 04:01:32;;;;;;;7.80;2.47;;;11.50;84.50;;;;;;5009947;28;20279;-67
2024/01/23 04:03:58;;;;;;;9.05;3.47;;;11.40;84.40;;;;;;5013849;28;20045;-68
2024/01/23 04:06:24;;;;;;;14.05;3.67;;;11.40;84.40;;;;;;5030529;28;20048;-67
2024/01/23 04:08:49;;;;;;;11.75;3.33;;;11.40;84.40;;;;;;5013899;28;20152;-68
2024/01/23 04:11:15;;;;;;;9.63;3.42;;;11.40;84.40;;;;;;5011974;28;20050;-67
2024/01/23 04:13:41;;;;;;;7.88;2.65;;;11.50;84.50;;;;;;5012449;28;20037;-68
2024/01/23 04:16:06;;;;;;;12.25;3.47;;;11.40;84.40;;;;;;5031525;28;20284;-68
2024/01/23 04:18:32;;;;;;;13.70;3.78;;;11.50;84.40;;;;;;5011862;28;20497;-68
2024/01/23 04:20:58;;;;;;;9.30;2.88;;;11.50;84.50;;;;;;5013223;28;20045;-68
2024/01/23 04:23:24;;;;;;;13.90;4.35;;;11.50;84.50;;;;;;4996795;28;20053;-68
2024/01/23 04:25:49;;;;;;;10.65;2.63;;;11.50;84.50;;;;;;5011028;28;20046;-68
2024/01/23 04:28:15;;;;;;;10.18;3.05;;;11.50;84.50;;;;;;5011917;28;20042;-68
2024/01/23 04:30:41;;;;;;;8.02;2.65;;;11.50;84.40;;;;;;5016286;28;20037;-68
2024/01/23 04:33:07;;;;;;;8.57;2.92;;;11.50;84.40;;;;;;5011304;28;20040;-68
2024/01/23 04:35:33;;;;;;;10.98;3.33;;;11.50;84.40;;;;;;5010739;28;20116;-68
2024/01/23 04:37:58;;;;;;;13.02;3.40;;;11.40;84.40;;;;;;5013468;28;20112;-68
2024/01/23 04:40:24;;;;;;;10.32;3.47;;;11.50;84.50;;;;;;5030325;28;20049;-68
2024/01/23 04:42:50;;;;;;;9.85;3.33;;;11.40;84.50;;;;;;5058522;28;20037;-68
2024/01/23 04:45:15;;;;;;;13.85;4.10;;;11.50;84.50;;;;;;5011650;28;20096;-68
2024/01/23 04:47:41;;;;;;;9.57;3.53;;;11.50;84.40;;;;;;5028457;28;20805;-68
2024/01/23 04:50:07;;;;;;;10.57;3.28;;;11.50;84.40;;;;;;5014729;28;20053;-68
2024/01/23 04:52:33;;;;;;;12.25;3.47;;;11.40;84.40;;;;;;5014272;28;20037;-68
2024/01/23 04:54:59;;;;;;;9.02;3.10;;;11.50;84.50;;;;;;5013549;28;20108;-68
2024/01/23 04:57:31;;;;;;;9.35;2.80;;;11.50;84.40;;;;;;5029696;28;20480;-68
2024/01/23 04:59:59;;;;;;;11.60;4.10;;;11.50;84.50;;;;;;5029068;28;20069;-68
2024/01/23 05:02:26;;;;;;;11.25;3.10;;;11.50;84.50;;;;;;4991940;28;20041;-68
2024/01/23 05:04:52;;;;;;;9.85;2.90;;;11.50;84.50;;;;;;5011349;28;20266;-68
2024/01/23 05:07:17;;;;;;;9.43;2.60;;;11.50;84.50;;;;;;5012187;28;20037;-68
2024/01/23 05:09:43;;;;;;;8.27;2.80;;;11.50;84.50;;;;;;5013273;28;20083;-68
2024/01/23 05:12:09;;;;;;;10.73;3.20;;;11.50;84.50;;;;;;5029862;28;20079;-68
2024/01/23 05:14:36;;;;;;;13.82;3.60;;;11.50;84.60;;;;;;4995303;28;20077;-68
2024/01/23 05:17:01;;;;;;;13.75;3.53;;;11.50;84.60;;;;;;5029946;28;20399;-68
2024/01/23 05:19:28;;;;;;;10.77;3.63;;;11.50;84.50;;;;;;5028697;28;20041;-68
2024/01/23 05:21:53;;;;;;;9.57;3.30;;;11.50;84.60;;;;;;5018355;28;20052;-68
2024/01/23 05:24:19;;;;;;;11.23;3.55;;;11.50;84.60;;;;;;5009853;28;20041;-68
2024/01/23 05:26:44;;;;;;;10.45;2.95;;;11.50;84.60;;;;;;5008699;28;20046;-68
2024/01/23 05:29:10;;;;;;;8.43;2.53;;;11.50;84.60;;;;;;5025530;28;20041;-68
2024/01/23 05:31:36;;;;;;;16.15;3.88;;;11.50;84.60;;;;;;5012278;28;20052;-68
2024/01/23 05:34:02;;;;;;;10.20;3.20;;;11.50;84.60;;;;;;5014075;28;20064;-68
2024/01/23 05:36:27;;;;;;;9.93;3.28;;;11.50;84.60;;;;;;5010778;28;20145;-68
2024/01/23 05:38:53;;;;;;;11.70;3.22;;;11.50;84.60;;;;;;5011464;28;20037;-68
2024/01/23 05:41:18;;;;;;;11.15;3.58;;;11.50;84.60;;;;;;5010150;28;20045;-68
2024/01/23 05:43:44;;;;;;;11.07;3.95;;;11.50;84.60;;;;;;5009924;28;20041;-68
2024/01/23 05:46:10;;;;;;;11.95;3.78;;;11.50;84.60;;;;;;4995057;28;20045;-68
2024/01/23 05:48:35;;;;;;;15.68;3.92;;;11.50;84.70;;;;;;5011007;28;20049;-68
2024/01/23 05:51:01;;;;;;;10.10;3.22;;;11.50;84.60;;;;;;5012211;28;20042;-68
2024/01/23 05:53:26;;;;;;;9.27;3.28;;;11.50;84.70;;;;;;5011184;28;20048;-68
2024/01/23 05:55:53;;;;;;;12.68;3.60;;;11.50;84.60;;;;;;5029186;28;20045;-68
2024/01/23 05:58:18;;;;;;;13.02;4.07;;;11.50;84.70;;;;;;5010461;28;20460;-68
2024/01/23 06:00:44;;;;;;;11.10;3.72;;;11.50;84.70;;;;;;5043280;28;20128;-68
2024/01/23 06:03:10;;;;;;;12.60;3.55;;;11.50;84.60;;;;;;5010400;28;20037;-68
2024/01/23 06:05:35;;;;;;;12.13;3.70;;;11.50;84.70;;;;;;5011824;28;20509;-68
2024/01/23 06:08:01;;;;;;;8.13;3.13;;;11.50;84.70;;;;;;5010645;28;20109;-68
2024/01/23 06:10:26;;;;;;;13.35;3.83;;;11.50;84.70;;;;;;5043516;28;20115;-68
2024/01/23 06:12:52;;;;;;;12.52;4.05;;;11.50;84.70;;;;;;5020662;28;20083;-68
2024/01/23 06:15:18;;;;;;;14.32;3.90;;;11.50;84.70;;;;;;5028894;28;20037;-68
2024/01/23 06:17:43;;;;;;;11.45;3.63;;;11.50;84.80;;;;;;5011327;28;20060;-68
2024/01/23 06:20:12;;;;;;;14.52;4.32;;;11.50;84.80;;;;;;5012422;28;20088;-68
2024/01/23 06:22:38;;;;;;;14.20;4.13;;;11.50;84.80;;;;;;5010018;28;20132;-68
2024/01/23 06:25:07;;;;;;;12.68;3.45;;;11.50;84.70;;;;;;5027715;28;20136;-68
2024/01/23 06:27:33;;;;;;;13.60;3.97;;;11.50;84.70;;;;;;4992650;28;20084;-68
2024/01/23 06:29:59;;;;;;;9.52;4.10;;;11.50;84.70;;;;;;4997555;28;20049;-68
2024/01/23 06:32:25;;;;;;;13.93;5.00;;;11.50;84.70;;;;;;5007530;28;20396;-68
2024/01/23 06:34:54;;;;;;;11.45;3.67;;;11.50;84.70;;;;;;4996106;28;20045;-68
2024/01/23 06:37:20;;;;;;;13.07;3.67;;;11.50;84.80;;;;;;5008098;28;20033;-68
2024/01/23 06:39:46;;;;;;;10.32;3.65;;;11.50;84.80;;;;;;5013215;28;20508;-68
2024/01/23 06:42:12;;;;;;;11.48;4.05;;;11.50;84.80;;;;;;5011108;28;20408;-68
2024/01/23 06:44:39;;;;;;;13.40;4.10;;;11.50;84.80;;;;;;5011583;28;20045;-68
2024/01/23 06:47:05;;;;;;;13.75;4.18;;;11.50;84.80;;;;;;5009994;28;20034;-68
2024/01/23 06:49:30;;;;;;;11.48;3.60;;;11.50;84.80;;;;;;5021578;28;20455;-68
2024/01/23 06:51:56;;;;;;;13.45;4.30;;;11.50;84.80;;;;;;5016226;28;20092;-68
2024/01/23 06:54:22;;;;;;;13.93;4.40;;;11.50;84.80;;;;;;5013314;28;20030;-67
2024/01/23 06:56:47;;;;;;;10.43;3.70;;;11.50;84.80;;;;;;5019634;28;20045;-68
2024/01/23 06:59:13;;;;;;;11.55;4.35;;;11.50;84.80;;;;;;5010790;28;20091;-68
2024/01/23 07:01:39;;;;;;;17.02;4.15;;;11.50;84.80;;;;;;5005837;28;20420;-68
2024/01/23 07:04:05;;;;;;;14.35;4.47;;;11.50;84.80;;;;;;5024144;28;20037;-68
2024/01/23 07:06:31;;;;;;;11.52;4.10;;;11.50;84.80;;;;;;5022207;28;20474;-68
2024/01/23 07:08:57;;;;;;;12.35;4.53;;;11.50;84.80;;;;;;5012573;28;20103;-67
2024/01/23 07:11:23;;;;;;;13.95;4.68;;;11.50;84.80;;;;;;5009265;28;20084;-67
2024/01/23 07:13:48;;;;;;;17.85;4.50;;;11.50;84.80;;;;;;5009553;28;20033;-67
2024/01/23 07:16:14;;;;;;;11.93;4.38;;;11.50;84.80;;;;;;5012799;28;20030;-68
2024/01/23 07:18:40;;;;;;;14.90;4.63;;;11.50;84.80;;;;;;5028492;28;20037;-67
2024/01/23 07:21:05;;;;;;;12.75;4.18;;;11.50;84.80;;;;;;5013144;28;20065;-68
2024/01/23 07:23:33;;;;;;;11.60;4.28;;;11.50;84.80;;;;;;5015855;28;20405;-68
2024/01/23 07:25:58;;;;;;;16.60;4.68;;;11.50;84.80;;;;;;5012601;28;20049;-68
2024/01/23 07:28:24;;;;;;;17.70;4.20;;;11.50;84.90;;;;;;5015156;28;20036;-68
2024/01/23 07:30:50;;;;;;;14.05;3.67;;;11.50;84.80;;;;;;5011062;28;20073;-68
2024/01/23 07:33:15;;;;;;;15.57;4.35;;;11.50;84.80;;;;;;5016171;28;20132;-68
2024/01/23 07:35:41;;;;;;;12.95;4.30;;;11.50;84.90;;;;;;5030972;28;20042;-68
2024/01/23 07:38:10;;;;;;;17.70;4.60;;;11.50;84.80;;;;;;4998949;28;20392;-67
2024/01/23 07:40:40;;;;;;;14.55;4.18;;;11.50;84.80;;;;;;5015916;28;20501;-68
2024/01/23 07:43:05;;;;;;;12.68;2.72;;;11.50;84.80;;;;;;5032177;28;20505;-68
2024/01/23 07:45:31;;;;;;;16.02;4.60;;;11.60;84.80;;;;;;5015214;28;20049;-68
2024/01/23 07:47:57;;;;;;;11.98;4.15;;;11.60;84.80;;;;;;5015193;28;20038;-68
2024/01/23 07:50:22;;;;;;;14.05;4.50;;;11.60;84.70;;;;;;5012181;28;20054;-68
2024/01/23 07:52:48;;;;;;;18.02;4.88;;;11.60;84.70;;;;;;5011061;28;20128;-68
2024/01/23 07:55:14;;;;;;;13.77;4.20;;;11.60;84.70;;;;;;5011903;28;20176;-67
2024/01/23 07:57:39;;;;;;;15.63;3.65;;;11.60;84.70;;;;;;5012788;28;20076;-68
2024/01/23 08:00:07;;;;;;;14.82;3.92;;;11.70;84.70;;;;;;4998717;28;20041;-69
2024/01/23 08:02:32;;;;;;;14.32;4.03;;;11.70;84.70;;;;;;5016425;28;20184;-67
2024/01/23 08:04:59;;;;;;;11.40;4.10;;;11.70;84.60;;;;;;5032186;28;20404;-68
2024/01/23 08:07:24;;;;;;;17.85;4.55;;;11.70;84.50;;;;;;4982551;28;20033;-68
2024/01/23 08:09:50;;;;;;;18.00;4.57;;;11.70;84.50;;;;;;5014115;28;20036;-68
2024/01/23 08:12:16;;;;;;;11.77;4.20;;;11.60;84.50;;;;;;5012531;28;20049;-68
2024/01/23 08:14:42;;;;;;;12.80;4.05;;;11.70;84.60;;;;;;5014689;28;20823;-68
2024/01/23 08:17:07;;;;;;;17.55;5.43;;;11.60;84.50;;;;;;5012313;28;20045;-68
2024/01/23 08:19:33;;;;;;;13.05;4.45;;;11.60;84.50;;;;;;5013209;28;20063;-68
2024/01/23 08:21:59;;;;;;;14.75;4.78;;;11.60;84.40;;;;;;5032199;28;20045;-68
2024/01/23 08:24:24;;;;;;;14.13;4.63;;;11.60;84.40;;;;;;5031262;28;20186;-68
2024/01/23 08:26:52;;;;;;;11.75;5.13;;;11.60;84.40;;;;;;5015601;28;20041;-68
2024/01/23 08:29:19;;;;;;;20.17;5.13;;;11.60;84.40;;;;;;5031567;28;20081;-68
2024/01/23 08:31:45;;;;;;;19.90;4.47;;;11.60;84.50;;;;;;5015197;28;20038;-68
2024/01/23 08:34:11;;;;;;;13.85;4.45;;;11.60;84.40;;;;;;5015195;28;20045;-68
2024/01/23 08:36:36;;;;;;;15.35;4.50;;;11.60;84.40;;;;;;5014413;28;20045;-68
2024/01/23 08:39:02;;;;;;;12.98;4.43;;;11.60;84.50;;;;;;4999167;28;20049;-68
2024/01/23 08:41:29;;;;;;;16.80;4.78;;;11.60;84.40;;;;;;5031298;28;20048;-68
2024/01/23 08:43:55;;;;;;;16.58;4.78;;;11.60;84.50;;;;;;5013394;28;20057;-68
2024/01/23 08:46:21;;;;;;;16.85;4.65;;;11.60;84.40;;;;;;5011832;28;20050;-68
2024/01/23 08:48:47;;;;;;;13.90;4.35;;;11.60;84.50;;;;;;4996597;28;20041;-68
2024/01/23 08:51:13;;;;;;;15.85;4.70;;;11.50;84.40;;;;;;5030593;28;20511;-68
2024/01/23 08:53:38;;;;;;;15.18;4.05;;;11.50;84.40;;;;;;5015057;28;20041;-68
2024/01/23 08:56:04;;;;;;;16.23;4.82;;;11.60;84.50;;;;;;5015041;28;20053;-68
2024/01/23 08:58:29;;;;;;;15.13;4.32;;;11.50;84.50;;;;;;5023210;28;20138;-68
2024/01/23 09:00:55;;;;;;;15.18;4.05;;;11.50;84.50;;;;;;5015414;28;20048;-68
2024/01/23 09:03:21;;;;;;;13.98;3.28;;;11.60;84.50;;;;;;5014285;28;20053;-68
2024/01/23 09:05:48;;;;;;;12.35;4.20;;;11.50;84.50;;;;;;5031255;28;20454;-68
2024/01/23 09:08:13;;;;;;;12.10;4.88;;;11.50;84.50;;;;;;5014791;28;20056;-68
2024/01/23 09:10:39;;;;;;;18.50;4.85;;;11.50;84.50;;;;;;5014585;28;20034;-68
2024/01/23 09:13:04;;;;;;;17.15;4.20;;;11.50;84.50;;;;;;4998358;28;20099;-68
2024/01/23 09:15:31;;;;;;;14.65;4.50;;;11.50;84.50;;;;;;5014497;28;20037;-68
2024/01/23 09:17:57;;;;;;;14.63;3.60;;;11.50;84.50;;;;;;5013771;28;20091;-68
2024/01/23 09:20:23;;;;;;;14.57;4.65;;;11.50;84.50;;;;;;5030382;28;20069;-68
2024/01/23 09:22:50;;;;;;;17.48;5.53;;;11.50;84.50;;;;;;5031137;28;20489;-68
2024/01/23 09:25:17;;;;;;;10.68;4.65;;;11.50;84.50;;;;;;4998261;28;20160;-68
2024/01/23 09:27:43;;;;;;;16.98;5.38;;;11.50;84.60;;;;;;5014613;28;20049;-68
2024/01/23 09:30:09;;;;;;;18.05;5.30;;;11.50;84.60;;;;;;5029683;28;20037;-68
2024/01/23 09:32:35;;;;;;;13.85;5.30;;;11.50;84.50;;;;;;5014733;28;20033;-68
2024/01/23 09:35:00;;;;;;;11.70;4.63;;;11.50;84.60;;;;;;5011626;28;20398;-68
2024/01/23 09:37:27;;;;;;;18.58;4.88;;;11.50;84.60;;;;;;5029858;28;20033;-68
2024/01/23 09:39:52;;;;;;;16.13;5.28;;;11.50;84.60;;;;;;5013808;28;20042;-68
2024/01/23 09:42:18;;;;;;;16.50;5.40;;;11.50;84.60;;;;;;5013520;28;20045;-68
2024/01/23 09:44:43;;;;;;;12.43;4.88;;;11.50;84.60;;;;;;4981333;28;20072;-68
2024/01/23 09:47:10;;;;;;;13.43;4.55;;;11.50;84.70;;;;;;4981684;28;20135;-68
2024/01/23 09:49:36;;;;;;;13.80;4.72;;;11.50;84.70;;;;;;5014229;28;20053;-68
2024/01/23 09:52:03;;;;;;;16.42;4.32;;;11.50;84.70;;;;;;5010051;28;20045;-68
2024/01/23 09:54:31;;;;;;;15.15;4.82;;;11.50;84.80;;;;;;5005489;28;20507;-68
2024/01/23 09:56:58;;;;;;;15.60;4.90;;;11.50;84.80;;;;;;5011057;28;20057;-68
2024/01/23 09:59:24;;;;;;;16.77;4.72;;;11.50;84.80;;;;;;5005313;28;20096;-68
2024/01/23 10:01:49;;;;;;;11.05;4.00;;;11.50;84.90;;;;;;4998437;28;20049;-68
2024/01/23 10:04:16;;;;;;;14.73;4.22;;;11.50;84.90;;;;;;5030214;28;20044;-68
2024/01/23 10:06:41;;;;;;;19.13;3.50;;;11.50;84.90;;;;;;5013853;28;20129;-68
2024/01/23 10:09:07;;;;;;;17.02;4.28;;;11.50;84.90;;;;;;5030374;28;20159;-68
2024/01/23 10:11:35;;;;;;;15.48;4.60;;;11.50;85.00;;;;;;4995762;28;20048;-68
2024/01/23 10:14:01;;;;;;;14.32;4.78;;;11.50;85.00;;;;;;5013289;28;20065;-68
2024/01/23 10:16:27;;;;;;;16.27;5.82;;;11.50;85.00;;;;;;4981427;28;20091;-68
2024/01/23 10:18:53;;;;;;;17.73;4.40;;;11.50;85.00;;;;;;5010471;28;20084;-68
2024/01/23 10:21:22;;;;;;;16.02;5.00;;;11.50;85.00;;;;;;4995098;28;20086;-68
2024/01/23 10:23:51;;;;;;;22.63;5.30;;;11.50;85.00;;;;;;5025964;28;20092;-69
2024/01/23 10:26:17;;;;;;;13.90;4.18;;;11.50;85.10;;;;;;5011354;28;20052;-68
2024/01/23 10:28:43;;;;;;;17.63;4.43;;;11.50;85.00;;;;;;5013650;28;20037;-68
2024/01/23 10:31:09;;;;;;;16.70;4.75;;;11.50;85.10;;;;;;5029760;28;20069;-69
2024/01/23 10:33:37;;;;;;;14.50;3.88;;;11.50;85.10;;;;;;5029062;28;20033;-68
2024/01/23 10:36:05;;;;;;;17.83;4.88;;;11.60;85.20;;;;;;5009885;28;20042;-68
2024/01/23 10:38:35;;;;;;;;;;;11.50;85.20;;;;;;5011501;28;20065;-68
2024/01/23 10:41:02;;;;;;;19.73;5.40;;;11.50;85.20;;;;;;5029669;28;19917;-68
2024/01/23 10:43:28;;;;;;;16.23;4.97;;;11.50;85.20;;;;;;4997606;28;20045;-68
2024/01/23 10:45:54;;;;;;;17.77;5.32;;;11.50;85.30;;;;;;4997263;28;20400;-69
2024/01/23 10:48:20;;;;;;;14.20;4.95;;;11.50;85.30;;;;;;5033080;28;20492;-69
2024/01/23 10:50:46;;;;;;;13.88;4.82;;;11.50;85.30;;;;;;5000564;28;20041;-69
2024/01/23 10:53:12;;;;;;;16.27;4.93;;;11.50;85.40;;;;;;4971916;28;20038;-69
2024/01/23 10:55:39;;;;;;;16.45;4.20;;;11.50;85.40;;;;;;4984745;28;20045;-69
2024/01/23 10:58:06;;;;;;;12.77;4.60;;;11.60;85.50;;;;;;5017215;28;20547;-68
2024/01/23 11:00:32;;;;;;;18.20;4.38;;;11.50;85.40;;;;;;5017765;28;20076;-69
2024/01/23 11:02:59;;;;;;;18.45;4.57;;;11.50;85.50;;;;;;5013452;28;20493;-68
2024/01/23 11:05:48;;;;;;;13.98;4.25;;;11.60;85.60;;;;;;4996772;28;20077;-69
2024/01/23 11:08:18;;;;;;;16.35;4.50;;;11.50;85.60;;;;;;5004177;28;20045;-69
2024/01/23 11:10:52;;;;;;;16.77;4.88;;;11.60;85.60;;;;;;5017128;28;20046;-69
2024/01/23 11:13:38;;;;;;;14.10;4.90;;;11.50;85.50;;;;;;5017335;28;20128;-68
2024/01/23 11:16:06;;;;;;;15.82;4.93;;;11.60;85.60;;;;;;5016002;28;20057;-68
2024/01/23 11:18:32;;;;;;;14.90;4.22;;;11.50;85.50;;;;;;5017335;28;20065;-68
2024/01/23 11:21:08;;;;;;;14.23;4.47;;;11.50;85.70;;;;;;5016040;28;20058;-68
2024/01/23 11:23:44;;;;;;;12.77;3.97;;;11.50;85.70;;;;;;5034256;28;20041;-68
2024/01/23 11:26:19;;;;;;;18.08;4.57;;;11.60;85.70;;;;;;5013283;28;20493;-68
2024/01/23 11:28:54;;;;;;;14.45;3.90;;;11.60;85.70;;;;;;5013807;28;20045;-68
2024/01/23 11:31:24;;;;;;;14.55;4.97;;;11.60;85.80;;;;;;5012725;28;20120;-68
2024/01/23 11:33:51;;;;;;;15.77;4.47;;;11.60;85.90;;;;;;4997112;28;20042;-68
2024/01/23 11:36:27;;;;;;;15.23;4.93;;;11.60;85.90;;;;;;5016548;28;20033;-68
2024/01/23 11:38:57;;;;;;;14.77;4.82;;;11.60;85.90;;;;;;5013659;28;20061;-68
2024/01/23 11:41:27;;;;;;;12.52;4.47;;;11.60;85.90;;;;;;5016589;28;20042;-68
2024/01/23 11:43:54;;;;;;;12.85;3.92;;;11.60;85.90;;;;;;5016576;28;20044;-68
2024/01/23 11:46:23;;;;;;;13.32;4.82;;;11.60;85.90;;;;;;4999579;28;20497;-68
2024/01/23 11:48:50;;;;;;;16.77;5.43;;;11.60;85.90;;;;;;5016448;28;20049;-68
2024/01/23 11:51:15;;;;;;;15.85;4.78;;;11.60;86.00;;;;;;4999221;28;20284;-69
2024/01/23 11:53:44;;;;;;;15.23;4.25;;;11.60;86.00;;;;;;4983652;28;20076;-68
2024/01/23 11:56:10;;;;;;;11.88;4.43;;;11.60;85.90;;;;;;5016370;28;20045;-68
2024/01/23 11:58:36;;;;;;;14.75;4.38;;;11.60;86.00;;;;;;5046014;28;20109;-68
2024/01/23 12:01:01;;;;;;;13.95;4.55;;;11.60;86.00;;;;;;5012710;28;20136;-68
2024/01/23 12:03:28;;;;;;;17.45;4.50;;;11.60;86.00;;;;;;4996444;28;20077;-68
2024/01/23 12:05:53;;;;;;;20.23;5.05;;;11.60;86.00;;;;;;5015070;28;20037;-68
2024/01/23 12:08:19;;;;;;;15.80;4.32;;;11.60;86.00;;;;;;5015619;28;20126;-68
2024/01/23 12:10:45;;;;;;;13.05;4.40;;;11.60;86.70;;;;;;5012118;28;20056;-68
2024/01/23 12:13:11;;;;;;;12.23;4.20;;;11.60;86.00;;;;;;4996366;28;20034;-69
2024/01/23 12:15:37;;;;;;;16.50;3.67;;;11.60;86.00;;;;;;5013918;28;20038;-68
2024/01/23 12:18:03;;;;;;;14.70;4.32;;;11.60;86.00;;;;;;5015150;28;20033;-68
2024/01/23 12:20:29;;;;;;;14.57;4.55;;;11.60;86.00;;;;;;4999107;28;20053;-69
2024/01/23 12:22:54;;;;;;;15.75;4.47;;;11.60;86.00;;;;;;5015404;28;20480;-69
2024/01/23 12:25:20;;;;;;;16.70;4.05;;;11.60;86.00;;;;;;5015302;28;20041;-69
2024/01/23 12:27:47;;;;;;;16.88;5.32;;;11.60;86.00;;;;;;5012218;28;20042;-69
2024/01/23 12:30:16;;;;;;;15.32;4.95;;;11.60;86.00;;;;;;4998858;28;20045;-68
2024/01/23 12:32:48;;;;;;;14.52;4.32;;;11.60;86.00;;;;;;5015428;28;20103;-69
2024/01/23 12:35:14;;;;;;;14.18;4.90;;;11.60;86.00;;;;;;5015501;28;20130;-69